createdAt,value
2023-03-06T00:01:00.466Z,9.80
2023-03-06T00:03:28.557Z,8.77
2023-03-06T00:05:58.751Z,9.30
2023-03-06T00:08:29.117Z,8.43
2023-03-06T00:10:57.937Z,9.82
2023-03-06T00:13:26.778Z,9.35
2023-03-06T00:15:54.617Z,10.00
2023-03-06T00:18:22.193Z,10.20
2023-03-06T00:20:49.614Z,10.95
2023-03-06T00:23:17.302Z,10.98
2023-03-06T00:25:46.385Z,10.50
2023-03-06T00:28:15.793Z,10.57
2023-03-06T00:30:46.074Z,11.45
2023-03-06T00:33:13.662Z,12.35
2023-03-06T00:35:41.940Z,10.05
2023-03-06T00:38:12.095Z,10.68
2023-03-06T00:40:39.703Z,12.60
2023-03-06T00:43:07.407Z,12.88
2023-03-06T00:45:36.317Z,11.00
2023-03-06T00:48:04.706Z,11.50
2023-03-06T00:50:32.509Z,12.95
2023-03-06T00:53:01.014Z,11.23
2023-03-06T00:55:29.497Z,14.70
2023-03-06T00:57:57.086Z,12.68
2023-03-06T01:00:25.873Z,14.38
2023-03-06T01:02:53.739Z,15.75
2023-03-06T01:05:23.004Z,13.15
2023-03-06T01:07:50.639Z,16.88
2023-03-06T01:10:18.396Z,13.27
2023-03-06T01:12:46.042Z,13.57
2023-03-06T01:15:14.335Z,15.13
2023-03-06T01:17:41.941Z,12.60
2023-03-06T01:20:14.462Z,14.88
2023-03-06T01:22:42.918Z,15.20
2023-03-06T01:25:12.034Z,13.40
2023-03-06T01:27:39.591Z,17.25
2023-03-06T01:30:08.286Z,14.75
2023-03-06T01:32:35.818Z,15.68
2023-03-06T01:35:03.916Z,14.52
2023-03-06T01:37:31.806Z,13.93
2023-03-06T01:39:59.250Z,13.73
2023-03-06T01:42:26.774Z,13.02
2023-03-06T01:45:35.097Z,13.98
2023-03-06T01:48:02.682Z,14.10
2023-03-06T01:50:30.386Z,14.52
2023-03-06T01:53:00.944Z,12.55
2023-03-06T01:55:34.700Z,11.57
2023-03-06T01:58:09.090Z,12.15
2023-03-06T02:00:37.868Z,9.57
2023-03-06T02:03:21.591Z,10.95
2023-03-06T02:05:49.151Z,11.43
2023-03-06T02:08:21.611Z,11.15
2023-03-06T02:11:02.764Z,11.25
2023-03-06T02:13:31.129Z,10.05
2023-03-06T02:15:59.340Z,12.73
2023-03-06T02:18:29.392Z,10.73
2023-03-06T02:21:06.481Z,11.77
2023-03-06T02:24:12.679Z,14.55
2023-03-06T02:26:43.273Z,13.93
2023-03-06T02:29:11.498Z,16.23
2023-03-06T02:31:39.175Z,13.82
2023-03-06T02:34:16.094Z,15.30
2023-03-06T02:36:48.854Z,16.83
2023-03-06T02:39:23.827Z,16.83
2023-03-06T02:41:51.532Z,16.58
2023-03-06T02:44:24.092Z,15.82
2023-03-06T02:46:51.699Z,16.55
2023-03-06T02:49:19.357Z,16.80
2023-03-06T02:51:46.807Z,15.07
2023-03-06T02:54:14.623Z,16.98
2023-03-06T02:56:43.332Z,17.27
2023-03-06T02:59:12.339Z,18.23
2023-03-06T03:01:40.644Z,16.83
2023-03-06T03:04:08.953Z,16.90
2023-03-06T03:06:37.158Z,17.65
2023-03-06T03:09:05.002Z,17.58
2023-03-06T03:11:32.513Z,16.35
2023-03-06T03:14:00.657Z,15.10
2023-03-06T03:16:29.495Z,16.33
2023-03-06T03:18:59.450Z,17.98
2023-03-06T03:21:28.198Z,17.02
2023-03-06T03:23:56.355Z,16.15
2023-03-06T03:29:05.127Z,17.42
2023-03-06T03:31:33.047Z,22.67
2023-03-06T03:34:02.445Z,17.60
2023-03-06T03:36:33.372Z,16.85
2023-03-06T03:39:01.058Z,20.50
2023-03-06T03:41:28.727Z,17.70
2023-03-06T03:43:56.503Z,18.00
2023-03-06T03:46:26.324Z,22.33
2023-03-06T03:48:55.884Z,18.00
2023-03-06T03:51:23.506Z,20.00
2023-03-06T03:53:56.777Z,18.77
2023-03-06T03:56:26.197Z,19.75
2023-03-06T03:59:02.921Z,19.23
2023-03-06T04:01:39.129Z,19.10
2023-03-06T04:04:07.405Z,18.90
2023-03-06T04:06:35.062Z,20.52
2023-03-06T04:09:04.550Z,22.80
2023-03-06T04:11:33.251Z,19.63
2023-03-06T04:14:01.560Z,22.42
2023-03-06T04:16:29.675Z,22.00
2023-03-06T04:18:57.224Z,20.42
2023-03-06T04:21:25.244Z,25.83
2023-03-06T04:23:52.989Z,20.75
2023-03-06T04:26:21.325Z,19.63
2023-03-06T04:28:49.268Z,19.35
2023-03-06T04:31:17.267Z,20.15
2023-03-06T04:33:44.747Z,23.25
2023-03-06T04:36:34.091Z,20.70
2023-03-06T04:39:06.613Z,20.95
2023-03-06T04:41:35.529Z,21.05
2023-03-06T04:44:03.244Z,23.15
2023-03-06T04:46:30.872Z,20.63
2023-03-06T04:48:58.693Z,21.50
2023-03-06T04:51:26.943Z,19.42
2023-03-06T04:53:54.542Z,20.15
2023-03-06T04:56:22.394Z,22.00
2023-03-06T04:58:50.263Z,21.02
2023-03-06T05:01:18.612Z,24.05
2023-03-06T05:03:46.558Z,22.27
2023-03-06T05:06:14.184Z,20.65
2023-03-06T05:08:42.246Z,20.73
2023-03-06T05:11:10.107Z,19.02
2023-03-06T05:13:37.782Z,20.17
2023-03-06T05:16:07.043Z,18.98
2023-03-06T05:18:35.710Z,23.48
2023-03-06T05:21:04.886Z,23.92
2023-03-06T05:23:36.386Z,21.83
2023-03-06T05:26:12.847Z,21.08
2023-03-06T05:28:41.482Z,20.63
2023-03-06T05:31:09.714Z,24.00
2023-03-06T05:33:37.572Z,25.90
2023-03-06T05:36:09.350Z,20.75
2023-03-06T05:38:37.260Z,22.85
2023-03-06T05:41:05.328Z,23.80
2023-03-06T05:43:32.913Z,27.80
2023-03-06T05:46:06.148Z,24.52
2023-03-06T05:48:35.950Z,24.33
2023-03-06T05:51:05.039Z,25.55
2023-03-06T05:53:33.093Z,24.15
2023-03-06T05:56:08.772Z,25.17
2023-03-06T05:58:37.496Z,26.25
2023-03-06T06:01:18.255Z,26.27
2023-03-06T06:03:46.948Z,28.02
2023-03-06T06:06:15.564Z,27.65
2023-03-06T06:08:44.122Z,25.98
2023-03-06T06:11:13.933Z,27.85
2023-03-06T06:13:41.705Z,27.25
2023-03-06T06:16:12.631Z,29.33
2023-03-06T06:18:41.416Z,27.08
2023-03-06T06:21:12.465Z,28.83
2023-03-06T06:23:41.677Z,31.00
2023-03-06T06:26:10.680Z,31.23
2023-03-06T06:28:38.547Z,32.33
2023-03-06T06:31:13.344Z,36.53
2023-03-06T06:33:41.994Z,29.33
2023-03-06T06:36:21.279Z,31.63
2023-03-06T06:38:50.054Z,34.83
2023-03-06T06:44:08.805Z,36.78
2023-03-06T06:47:20.657Z,31.10
2023-03-06T06:49:25.487Z,33.10
2023-03-06T06:51:53.344Z,34.33
2023-03-06T06:54:22.445Z,34.90
2023-03-06T06:56:50.338Z,37.30
2023-03-06T06:59:18.225Z,35.53
2023-03-06T07:01:46.083Z,34.28
2023-03-06T07:04:14.823Z,36.17
2023-03-06T07:06:43.112Z,35.13
2023-03-06T07:09:12.006Z,36.58
2023-03-06T07:11:40.829Z,37.72
2023-03-06T07:14:08.830Z,37.85
2023-03-06T07:16:36.471Z,39.97
2023-03-06T07:19:04.397Z,38.85
2023-03-06T07:21:33.734Z,41.35
2023-03-06T07:24:01.649Z,35.17
2023-03-06T07:26:31.489Z,36.58
2023-03-06T07:29:02.519Z,32.58
2023-03-06T07:31:30.390Z,33.60
2023-03-06T07:33:58.088Z,33.97
2023-03-06T07:36:27.995Z,34.08
2023-03-06T07:38:55.692Z,35.63
2023-03-06T07:41:23.517Z,34.85
2023-03-06T07:43:51.299Z,36.55
2023-03-06T07:46:19.479Z,33.80
2023-03-06T07:48:47.124Z,31.98
2023-03-06T07:51:21.580Z,32.80
2023-03-06T07:53:50.308Z,31.20
2023-03-06T07:56:17.972Z,35.55
2023-03-06T07:58:47.705Z,32.50
2023-03-06T08:01:19.915Z,33.92
2023-03-06T08:03:49.942Z,37.50
2023-03-06T08:06:24.962Z,34.22
2023-03-06T08:08:55.566Z,35.42
2023-03-06T08:11:27.103Z,32.45
2023-03-06T08:13:58.151Z,32.83
2023-03-06T08:16:30.084Z,32.88
2023-03-06T08:18:58.561Z,31.02
2023-03-06T08:21:28.200Z,33.53
2023-03-06T08:23:56.160Z,28.35
2023-03-06T08:26:28.496Z,29.20
2023-03-06T08:29:00.201Z,27.88
2023-03-06T08:36:31.684Z,26.50
2023-03-06T08:38:59.764Z,30.75
2023-03-06T08:41:28.213Z,28.45
2023-03-06T08:43:58.856Z,28.50
2023-03-06T08:46:29.342Z,26.08
2023-03-06T08:48:57.374Z,26.63
2023-03-06T08:51:26.721Z,25.65
2023-03-06T08:53:55.703Z,23.60
2023-03-06T08:56:33.925Z,24.67
2023-03-06T08:59:04.931Z,22.77
2023-03-06T09:01:41.425Z,21.25
2023-03-06T09:04:11.814Z,19.45
2023-03-06T09:06:43.265Z,24.15
2023-03-06T09:09:12.613Z,18.98
2023-03-06T09:11:40.602Z,16.98
2023-03-06T09:14:08.424Z,15.27
2023-03-06T09:16:36.218Z,14.43
2023-03-06T09:19:11.320Z,13.65
2023-03-06T09:21:39.330Z,12.50
2023-03-06T09:24:07.299Z,13.73
2023-03-06T09:26:51.723Z,14.15
2023-03-06T09:29:19.687Z,13.52
2023-03-06T09:31:47.524Z,11.68
2023-03-06T09:34:15.508Z,10.05
2023-03-06T09:36:56.559Z,9.93
2023-03-06T09:39:27.186Z,7.32
2023-03-06T09:41:58.232Z,8.57
2023-03-06T09:44:30.671Z,9.65
2023-03-06T09:47:33.848Z,7.63
2023-03-06T09:50:29.454Z,8.70
2023-03-06T09:53:34.175Z,8.50
2023-03-06T09:56:20.273Z,6.68
2023-03-06T09:58:58.016Z,6.50
2023-03-06T10:01:36.563Z,6.97
2023-03-06T10:04:37.962Z,5.45
2023-03-06T10:07:23.234Z,5.00
2023-03-06T10:10:04.538Z,5.25
2023-03-06T10:12:52.028Z,6.03
2023-03-06T10:15:27.167Z,4.00
2023-03-06T10:17:56.576Z,4.28
2023-03-06T10:20:36.855Z,7.10
2023-03-06T10:23:54.612Z,4.95
2023-03-06T10:26:35.915Z,6.07
2023-03-06T10:29:20.169Z,4.88
2023-03-06T10:32:03.038Z,4.70
2023-03-06T10:34:38.530Z,4.40
2023-03-06T10:37:19.634Z,3.47
2023-03-06T10:39:55.341Z,4.00
2023-03-06T10:42:25.002Z,3.92
2023-03-06T10:45:12.747Z,5.18
2023-03-06T10:47:42.236Z,4.47
2023-03-06T10:50:30.583Z,4.20
2023-03-06T10:53:16.080Z,5.50
2023-03-06T10:55:58.742Z,6.22
2023-03-06T10:58:30.423Z,4.70
2023-03-06T11:03:31.328Z,6.35
2023-03-06T11:06:13.733Z,5.75
2023-03-06T11:08:44.380Z,7.10
2023-03-06T11:11:36.447Z,5.70
2023-03-06T11:14:18.997Z,6.95
2023-03-06T11:16:53.428Z,4.25
2023-03-06T11:19:27.340Z,5.80
2023-03-06T11:22:06.766Z,5.90
2023-03-06T11:24:44.577Z,7.22
2023-03-06T11:27:35.132Z,6.72
2023-03-06T11:30:19.062Z,6.35
2023-03-06T11:32:56.502Z,7.03
2023-03-06T11:35:35.354Z,5.45
2023-03-06T11:38:17.159Z,5.63
2023-03-06T11:44:00.706Z,7.97
2023-03-06T11:46:40.975Z,5.63
2023-03-06T11:49:25.980Z,6.78
2023-03-06T11:52:00.600Z,4.57
2023-03-06T11:54:28.615Z,6.03
2023-03-06T11:57:07.004Z,6.70
2023-03-06T12:00:10.983Z,6.32
2023-03-06T12:03:05.593Z,4.60
2023-03-06T12:06:08.511Z,6.28
2023-03-06T12:08:39.972Z,5.18
2023-03-06T12:11:24.275Z,6.28
2023-03-06T12:14:22.298Z,5.68
2023-03-06T12:17:00.609Z,7.50
2023-03-06T12:19:45.517Z,6.65
2023-03-06T12:22:39.073Z,7.65
2023-03-06T12:25:22.929Z,8.50
2023-03-06T12:28:05.748Z,7.68
2023-03-06T12:30:40.851Z,6.43
2023-03-06T12:33:23.263Z,6.75
2023-03-06T12:36:36.472Z,6.65
2023-03-06T12:39:46.867Z,7.60
2023-03-06T12:42:42.376Z,7.30
2023-03-06T12:45:37.145Z,7.43
2023-03-06T12:48:17.270Z,7.70
2023-03-06T12:50:45.944Z,7.45
2023-03-06T12:53:28.566Z,7.22
2023-03-06T12:56:00.170Z,9.13
2023-03-06T13:01:14.503Z,8.30
2023-03-06T13:04:32.939Z,7.93
2023-03-06T13:07:20.052Z,9.65
2023-03-06T13:10:26.527Z,10.10
2023-03-06T13:12:57.356Z,10.90
2023-03-06T13:15:35.732Z,10.73
2023-03-06T13:18:21.845Z,11.40
2023-03-06T13:20:52.405Z,11.45
2023-03-06T13:23:29.024Z,10.15
2023-03-06T13:26:08.357Z,12.07
2023-03-06T13:28:48.649Z,11.15
2023-03-06T13:31:36.354Z,12.60
2023-03-06T13:34:42.419Z,12.20
2023-03-06T13:37:14.013Z,13.55
2023-03-06T13:40:01.628Z,12.25
2023-03-06T13:42:32.934Z,13.35
2023-03-06T13:45:23.965Z,13.48
2023-03-06T13:50:46.824Z,10.87
2023-03-06T13:54:04.099Z,12.38
2023-03-06T13:57:20.677Z,12.00
2023-03-06T14:00:14.358Z,12.20
2023-03-06T14:03:09.413Z,12.13
2023-03-06T14:05:47.399Z,11.48
2023-03-06T14:08:20.626Z,11.57
2023-03-06T14:11:02.202Z,12.55
2023-03-06T14:13:47.074Z,13.30
2023-03-06T14:16:43.802Z,10.90
2023-03-06T14:19:19.709Z,12.65
2023-03-06T14:21:57.373Z,12.15
2023-03-06T14:24:43.704Z,15.07
2023-03-06T14:27:21.184Z,12.23
2023-03-06T14:29:49.828Z,12.43
2023-03-06T14:32:23.109Z,12.07
2023-03-06T14:34:50.882Z,11.48
2023-03-06T14:37:25.145Z,12.05
2023-03-06T14:39:55.219Z,11.77
2023-03-06T14:42:30.463Z,11.68
2023-03-06T14:45:16.080Z,12.02
2023-03-06T14:47:50.280Z,11.68
2023-03-06T14:50:30.050Z,11.35
2023-03-06T14:53:04.289Z,10.32
2023-03-06T14:55:35.905Z,11.35
2023-03-06T14:58:15.286Z,11.20
2023-03-06T15:00:54.605Z,12.52
2023-03-06T15:03:49.154Z,11.82
2023-03-06T15:06:25.482Z,12.57
2023-03-06T15:09:20.364Z,13.13
2023-03-06T15:11:55.575Z,12.63
2023-03-06T15:14:41.002Z,12.40
2023-03-06T15:17:17.564Z,14.93
2023-03-06T15:19:48.632Z,13.57
2023-03-06T15:22:38.673Z,13.30
2023-03-06T15:25:26.954Z,15.15
2023-03-06T15:27:58.927Z,15.73
2023-03-06T15:30:29.547Z,18.23
2023-03-06T15:33:18.055Z,18.07
2023-03-06T15:35:57.311Z,15.20
2023-03-06T15:38:58.413Z,17.15
2023-03-06T15:41:36.804Z,15.35
2023-03-06T15:44:15.084Z,13.57
2023-03-06T15:46:42.714Z,13.88
2023-03-06T15:49:17.988Z,16.15
2023-03-06T15:51:45.620Z,15.57
2023-03-06T15:54:13.436Z,16.65
2023-03-06T15:56:45.951Z,19.85
2023-03-06T15:59:24.920Z,20.25
2023-03-06T16:01:54.183Z,21.65
2023-03-06T16:04:21.947Z,21.45
2023-03-06T16:06:49.610Z,22.35
2023-03-06T16:09:17.373Z,23.33
2023-03-06T16:11:45.355Z,22.95
2023-03-06T16:14:21.264Z,25.00
2023-03-06T16:16:51.774Z,26.38
2023-03-06T16:19:26.455Z,27.52
2023-03-06T16:21:56.778Z,26.90
2023-03-06T16:24:26.140Z,25.48
2023-03-06T16:26:58.556Z,25.42
2023-03-06T16:29:28.465Z,24.98
2023-03-06T16:31:58.729Z,25.75
2023-03-06T16:34:26.445Z,27.30
2023-03-06T16:36:54.430Z,29.80
2023-03-06T16:39:24.444Z,29.90
2023-03-06T16:41:52.661Z,29.02
2023-03-06T16:44:21.374Z,29.70
2023-03-06T16:46:50.856Z,28.63
2023-03-06T16:49:24.492Z,31.02
2023-03-06T16:51:54.665Z,30.25
2023-03-06T16:54:26.062Z,31.15
2023-03-06T16:56:53.985Z,32.25
2023-03-06T16:59:21.628Z,32.40
2023-03-06T17:01:49.322Z,34.08
2023-03-06T17:04:17.283Z,29.25
2023-03-06T17:06:45.025Z,29.40
2023-03-06T17:09:14.287Z,31.33
2023-03-06T17:11:44.877Z,33.70
2023-03-06T17:14:13.196Z,33.58
2023-03-06T17:16:40.975Z,32.45
2023-03-06T17:19:15.180Z,31.33
2023-03-06T17:21:44.362Z,33.10
2023-03-06T17:24:12.026Z,33.97
2023-03-06T17:26:40.252Z,34.03
2023-03-06T17:29:09.286Z,32.30
2023-03-06T17:31:36.974Z,33.65
2023-03-06T17:34:04.988Z,33.35
2023-03-06T17:36:33.068Z,32.03
2023-03-06T17:39:03.007Z,31.48
2023-03-06T17:41:32.820Z,29.20
2023-03-06T17:44:01.860Z,28.23
2023-03-06T17:46:31.974Z,26.88
2023-03-06T17:48:59.860Z,28.40
2023-03-06T17:51:27.668Z,32.63
2023-03-06T17:53:55.675Z,32.92
2023-03-06T17:56:23.294Z,31.95
2023-03-06T17:58:51.147Z,33.20
2023-03-06T18:01:22.755Z,30.27
2023-03-06T18:03:51.330Z,35.13
2023-03-06T18:06:22.034Z,33.80
2023-03-06T18:08:52.705Z,36.28
2023-03-06T18:11:22.358Z,36.05
2023-03-06T18:13:51.050Z,33.22
2023-03-06T18:16:23.255Z,37.92
2023-03-06T18:18:56.284Z,40.30
2023-03-06T18:21:24.912Z,38.92
2023-03-06T18:23:52.750Z,34.90
2023-03-06T18:26:28.821Z,40.38
2023-03-06T18:29:04.601Z,35.72
2023-03-06T18:31:36.795Z,37.55
2023-03-06T18:34:11.528Z,37.30
2023-03-06T18:36:42.468Z,34.83
2023-03-06T18:39:13.432Z,34.07
2023-03-06T18:41:41.386Z,35.78
2023-03-06T18:44:09.232Z,35.63
2023-03-06T18:46:38.597Z,32.83
2023-03-06T18:49:07.295Z,32.47
2023-03-06T18:51:35.616Z,34.20
2023-03-06T18:54:05.245Z,30.48
2023-03-06T18:56:33.986Z,33.67
2023-03-06T18:59:05.848Z,33.83
2023-03-06T19:01:34.494Z,33.28
2023-03-06T19:04:04.087Z,35.50
2023-03-06T19:06:31.856Z,32.53
2023-03-06T19:09:01.464Z,31.40
2023-03-06T19:11:31.912Z,31.75
2023-03-06T19:13:59.831Z,32.25
2023-03-06T19:16:31.147Z,32.92
2023-03-06T19:19:00.000Z,35.97
2023-03-06T19:21:29.005Z,30.45
2023-03-06T19:23:57.285Z,38.50
2023-03-06T19:26:26.467Z,31.15
2023-03-06T19:28:54.231Z,31.27
2023-03-06T19:31:26.027Z,30.40
2023-03-06T19:33:56.781Z,29.75
2023-03-06T19:36:33.273Z,30.47
2023-03-06T19:39:06.057Z,28.23
2023-03-06T19:41:34.735Z,32.40
2023-03-06T19:44:03.338Z,30.45
2023-03-06T19:46:31.945Z,28.95
2023-03-06T19:49:03.343Z,28.60
2023-03-06T19:51:30.978Z,26.30
2023-03-06T19:53:58.609Z,26.35
2023-03-06T19:56:29.207Z,28.42
2023-03-06T19:58:56.965Z,31.45
2023-03-06T20:01:27.105Z,25.10
2023-03-06T20:03:59.100Z,27.10
2023-03-06T20:06:33.349Z,28.02
2023-03-06T20:09:03.843Z,28.90
2023-03-06T20:11:32.435Z,28.05
2023-03-06T20:14:03.760Z,29.40
2023-03-06T20:16:32.668Z,27.92
2023-03-06T20:19:01.710Z,27.48
2023-03-06T20:21:35.343Z,28.55
2023-03-06T20:24:07.803Z,28.20
2023-03-06T20:26:37.625Z,30.55
2023-03-06T20:29:05.376Z,28.83
2023-03-06T20:31:33.413Z,31.15
2023-03-06T20:34:01.417Z,31.95
2023-03-06T20:36:36.765Z,29.25
2023-03-06T20:39:09.784Z,32.15
2023-03-06T20:41:38.276Z,34.42
2023-03-06T20:44:14.730Z,32.03
2023-03-06T20:46:43.067Z,32.70
2023-03-06T20:49:13.055Z,33.20
2023-03-06T20:51:42.198Z,33.30
2023-03-06T20:54:15.920Z,34.78
2023-03-06T20:56:47.775Z,36.13
2023-03-06T20:59:15.732Z,33.80
2023-03-06T21:01:47.874Z,33.70
2023-03-06T21:04:16.412Z,30.38
2023-03-06T21:06:46.839Z,31.85
2023-03-06T21:09:17.297Z,37.30
2023-03-06T21:11:45.854Z,35.40
2023-03-06T21:14:14.291Z,35.22
2023-03-06T21:16:42.538Z,36.05
2023-03-06T21:19:10.791Z,32.28
2023-03-06T21:21:38.664Z,32.90
2023-03-06T21:24:06.673Z,35.42
2023-03-06T21:26:34.300Z,34.25
2023-03-06T21:29:03.060Z,37.20
2023-03-06T21:31:31.838Z,33.75
2023-03-06T21:33:59.845Z,34.50
2023-03-06T21:36:28.260Z,37.60
2023-03-06T21:38:55.953Z,34.78
2023-03-06T21:41:30.369Z,37.20
2023-03-06T21:44:01.514Z,37.33
2023-03-06T21:46:30.257Z,35.35
2023-03-06T21:48:58.769Z,38.22
2023-03-06T21:51:27.002Z,34.67
2023-03-06T21:53:55.881Z,38.53
2023-03-06T21:56:27.836Z,37.38
2023-03-06T21:58:58.050Z,36.65
2023-03-06T22:01:28.912Z,41.35
2023-03-06T22:03:58.859Z,34.90
2023-03-06T22:06:29.261Z,35.53
2023-03-06T22:08:59.583Z,35.80
2023-03-06T22:11:31.332Z,35.00
2023-03-06T22:13:59.235Z,31.23
2023-03-06T22:16:26.932Z,32.22
2023-03-06T22:18:54.677Z,34.08
2023-03-06T22:21:23.404Z,34.47
2023-03-06T22:24:00.513Z,31.55
2023-03-06T22:26:29.788Z,29.13
2023-03-06T22:28:57.695Z,32.58
2023-03-06T22:31:29.033Z,33.53
2023-03-06T22:34:00.790Z,28.42
2023-03-06T22:39:03.194Z,29.88
2023-03-06T22:41:31.517Z,24.98
2023-03-06T22:44:01.842Z,29.05
2023-03-06T22:46:31.774Z,26.05
2023-03-06T22:49:00.983Z,26.38
2023-03-06T22:51:29.684Z,25.17
2023-03-06T22:53:58.273Z,25.40
2023-03-06T22:56:25.915Z,24.58
2023-03-06T22:58:53.627Z,24.75
2023-03-06T23:01:31.289Z,24.30
2023-03-06T23:04:02.877Z,24.13
2023-03-06T23:06:37.587Z,22.80
2023-03-06T23:09:12.070Z,20.17
2023-03-06T23:11:58.875Z,18.90
2023-03-06T23:14:49.538Z,19.25
2023-03-06T23:17:36.480Z,18.23
2023-03-06T23:20:23.186Z,19.73
2023-03-06T23:23:10.132Z,18.00
2023-03-06T23:25:44.395Z,19.95
2023-03-06T23:28:12.763Z,16.45
2023-03-06T23:30:41.586Z,17.10
2023-03-06T23:33:10.504Z,15.30
2023-03-06T23:35:39.129Z,16.92
2023-03-06T23:38:07.365Z,18.20
2023-03-06T23:40:36.732Z,17.23
2023-03-06T23:43:04.848Z,15.65
2023-03-06T23:45:32.698Z,17.77
2023-03-06T23:48:00.399Z,15.90
2023-03-06T23:50:28.129Z,17.83
2023-03-06T23:52:55.954Z,14.73
2023-03-06T23:55:23.574Z,15.18
2023-03-06T23:57:51.307Z,15.73
